createdAt,value
2019-04-21T00:05:00.914Z,101093.44
2019-04-21T00:10:16.844Z,101090.84
2019-04-21T00:15:12.427Z,101085.15
2019-04-21T00:20:26.112Z,101084.50
2019-04-21T00:25:33.966Z,101079.80
2019-04-21T00:30:54.556Z,101072.02
2019-04-21T00:35:48.692Z,101073.23
2019-04-21T00:41:05.621Z,101064.66
2019-04-21T00:46:04.728Z,101064.48
2019-04-21T00:51:33.330Z,101068.92
2019-04-21T00:56:28.838Z,101057.25
2019-04-21T01:01:38.036Z,101059.66
2019-04-21T01:06:48.296Z,101057.91
2019-04-21T01:11:51.859Z,101053.72
2019-04-21T01:16:58.195Z,101050.45
2019-04-21T01:22:14.775Z,101044.97
2019-04-21T01:27:33.680Z,101041.89
2019-04-21T01:32:55.816Z,101040.36
2019-04-21T01:38:00.196Z,101042.52
2019-04-21T01:43:04.801Z,101041.55
2019-04-21T01:48:15.850Z,101029.58
2019-04-21T01:53:38.444Z,101029.95
2019-04-21T01:58:36.576Z,101019.50
2019-04-21T02:09:02.163Z,101024.34
2019-04-21T02:14:12.932Z,101029.78
2019-04-21T02:19:11.424Z,101026.13
2019-04-21T02:24:31.256Z,101022.30
2019-04-21T02:29:37.630Z,101016.75
2019-04-21T02:34:50.694Z,101014.45
2019-04-21T02:39:56.770Z,101012.65
2019-04-21T02:44:59.929Z,101011.92
2019-04-21T03:00:30.336Z,100997.94
2019-04-21T03:16:22.286Z,100983.40
2019-04-21T03:21:29.097Z,100978.61
2019-04-21T03:47:06.979Z,100949.99
2019-04-21T03:57:38.759Z,100958.09
2019-04-21T04:02:58.754Z,100956.50
2019-04-21T04:07:59.263Z,100954.73
2019-04-21T04:13:04.961Z,100958.28
2019-04-21T04:18:16.687Z,100958.84
2019-04-21T04:34:22.840Z,100969.95
2019-04-21T04:39:42.862Z,100971.81
2019-04-21T04:54:55.476Z,100965.96
2019-04-21T05:00:14.514Z,100975.39
2019-04-21T05:05:14.072Z,100977.58
2019-04-21T05:10:19.639Z,100977.88
2019-04-21T05:15:19.393Z,100979.70
2019-04-21T05:20:41.602Z,100971.47
2019-04-21T05:25:23.444Z,100971.16
2019-04-21T05:30:50.088Z,100968.46
2019-04-21T05:36:04.089Z,100969.83
2019-04-21T05:41:05.204Z,100970.58
2019-04-21T05:46:21.744Z,100965.80
2019-04-21T05:51:25.849Z,100960.72
2019-04-21T05:56:36.648Z,100965.48
2019-04-21T06:02:02.567Z,100967.33
2019-04-21T06:07:02.102Z,100960.08
2019-04-21T06:12:02.906Z,100962.39
2019-04-21T06:17:10.908Z,100954.91
2019-04-21T06:22:16.439Z,100955.08
2019-04-21T06:27:29.877Z,100952.30
2019-04-21T06:38:01.431Z,100947.66
2019-04-21T06:43:20.871Z,100953.42
2019-04-21T06:48:18.497Z,100953.88
2019-04-21T06:53:36.035Z,100952.19
2019-04-21T06:58:27.823Z,100953.13
2019-04-21T07:03:44.002Z,100955.68
2019-04-21T07:08:52.931Z,100951.59
2019-04-21T07:14:01.733Z,100948.02
2019-04-21T07:19:05.920Z,100959.02
2019-04-21T07:24:10.365Z,100953.40
2019-04-21T07:29:14.093Z,100951.30
2019-04-21T07:34:27.446Z,100954.58
2019-04-21T07:39:30.088Z,100951.37
2019-04-21T07:44:32.631Z,100946.20
2019-04-21T07:50:00.909Z,100947.52
2019-04-21T07:55:21.590Z,100947.12
2019-04-21T08:05:39.228Z,100935.73
2019-04-21T08:10:28.622Z,100920.98
2019-04-21T08:15:40.088Z,100925.78
2019-04-21T08:20:43.697Z,100920.94
2019-04-21T08:26:01.132Z,100911.78
2019-04-21T08:31:09.886Z,100904.61
2019-04-21T08:36:32.533Z,100909.58
2019-04-21T08:41:46.939Z,100904.93
2019-04-21T08:46:52.597Z,100895.49
2019-04-21T08:52:21.694Z,100901.69
2019-04-21T08:57:47.607Z,100891.98
2019-04-21T09:03:11.181Z,100897.02
2019-04-21T09:08:10.737Z,100895.11
2019-04-21T09:13:17.213Z,100886.00
2019-04-21T09:18:18.886Z,100879.94
2019-04-21T09:23:32.769Z,100870.02
2019-04-21T09:28:36.338Z,100869.66
2019-04-21T09:33:35.259Z,100865.11
2019-04-21T09:38:39.862Z,100854.48
2019-04-21T09:43:48.388Z,100848.23
2019-04-21T09:49:00.358Z,100834.08
2019-04-21T09:54:05.798Z,100837.91
2019-04-21T09:59:13.253Z,100834.44
2019-04-21T10:04:14.277Z,100836.54
2019-04-21T10:09:21.601Z,100831.17
2019-04-21T10:14:29.160Z,100829.23
2019-04-21T10:19:34.424Z,100817.23
2019-04-21T10:24:40.486Z,100808.17
2019-04-21T10:29:48.593Z,100808.41
2019-04-21T10:34:55.140Z,100805.21
2019-04-21T10:40:00.100Z,100792.11
2019-04-21T10:45:05.278Z,100788.83
2019-04-21T10:50:10.935Z,100789.99
2019-04-21T10:55:31.761Z,100790.29
2019-04-21T11:00:21.775Z,100783.36
2019-04-21T11:05:28.750Z,100778.58
2019-04-21T11:10:33.991Z,100779.14
2019-04-21T11:15:39.176Z,100771.48
2019-04-21T11:20:44.662Z,100756.39
2019-04-21T11:25:49.747Z,100762.53
2019-04-21T11:31:00.291Z,100746.28
2019-04-21T11:36:04.720Z,100748.02
2019-04-21T11:41:09.718Z,100737.30
2019-04-21T11:46:13.853Z,100726.87
2019-04-21T11:51:19.170Z,100721.45
2019-04-21T11:56:23.247Z,100721.73
2019-04-21T12:01:27.646Z,100724.45
2019-04-21T12:06:37.994Z,100711.84
2019-04-21T12:11:38.908Z,100703.14
2019-04-21T12:16:43.366Z,100698.59
2019-04-21T12:22:01.186Z,100695.03
2019-04-21T12:26:59.797Z,100687.47
2019-04-21T12:32:22.270Z,100687.41
2019-04-21T12:37:26.866Z,100676.78
2019-04-21T12:42:32.347Z,100669.88
2019-04-21T12:47:37.656Z,100660.98
2019-04-21T12:52:42.217Z,100653.95
2019-04-21T12:57:47.560Z,100643.41
2019-04-21T13:02:52.116Z,100641.38
2019-04-21T13:07:57.466Z,100630.66
2019-04-21T13:13:03.842Z,100624.01
2019-04-21T13:18:08.178Z,100615.61
2019-04-21T13:23:13.800Z,100611.91
2019-04-21T13:28:18.727Z,100604.02
2019-04-21T13:33:23.149Z,100588.69
2019-04-21T13:38:35.164Z,100584.45
2019-04-21T13:43:33.134Z,100582.22
2019-04-21T13:48:37.899Z,100576.07
2019-04-21T13:53:41.967Z,100569.20
2019-04-21T13:58:48.392Z,100562.36
2019-04-21T14:03:53.551Z,100567.55
2019-04-21T14:08:58.998Z,100547.28
2019-04-21T14:14:03.134Z,100546.59
2019-04-21T14:19:07.584Z,100541.44
2019-04-21T14:24:12.833Z,100535.37
2019-04-21T14:29:17.561Z,100524.83
2019-04-21T14:34:21.999Z,100528.94
2019-04-21T14:39:26.593Z,100520.73
2019-04-21T14:44:31.105Z,100513.56
2019-04-21T14:49:53.248Z,100512.95
2019-04-21T14:55:09.874Z,100498.50
2019-04-21T15:00:15.359Z,100493.19
2019-04-21T15:05:19.889Z,100490.66
2019-04-21T15:10:27.071Z,100486.27
2019-04-21T15:15:29.927Z,100483.23
2019-04-21T15:20:34.509Z,100471.44
2019-04-21T15:25:38.709Z,100480.73
2019-04-21T15:30:44.719Z,100474.25
2019-04-21T15:35:51.201Z,100468.56
2019-04-21T15:41:00.538Z,100464.52
2019-04-21T15:46:04.666Z,100451.59
2019-04-21T15:51:11.043Z,100446.98
2019-04-21T15:56:31.046Z,100443.69
2019-04-21T16:02:04.495Z,100433.19
2019-04-21T16:07:09.946Z,100434.83
2019-04-21T16:12:17.819Z,100423.06
2019-04-21T16:17:23.539Z,100430.23
2019-04-21T16:22:30.634Z,100419.39
2019-04-21T16:27:37.222Z,100410.46
2019-04-21T16:32:44.011Z,100402.89
2019-04-21T16:37:49.762Z,100406.45
2019-04-21T16:42:58.446Z,100396.06
2019-04-21T16:48:03.565Z,100399.05
2019-04-21T16:53:28.244Z,100396.48
2019-04-21T16:58:38.791Z,100396.09
2019-04-21T17:03:44.385Z,100382.27
2019-04-21T17:08:52.506Z,100375.20
2019-04-21T17:14:00.631Z,100372.44
2019-04-21T17:19:15.915Z,100367.20
2019-04-21T17:24:14.446Z,100365.67
2019-04-21T17:29:20.891Z,100368.52
2019-04-21T17:34:29.771Z,100372.67
2019-04-21T17:39:34.953Z,100368.39
2019-04-21T17:44:41.271Z,100362.16
2019-04-21T17:49:49.061Z,100365.00
2019-04-21T17:55:11.449Z,100359.09
2019-04-21T18:00:53.518Z,100352.47
2019-04-21T18:05:37.497Z,100356.38
2019-04-21T18:10:42.329Z,100357.73
2019-04-21T18:15:47.090Z,100358.63
2019-04-21T18:20:46.112Z,100350.69
2019-04-21T18:26:01.387Z,100353.89
2019-04-21T18:31:06.934Z,100353.83
2019-04-21T18:36:49.830Z,100361.58
2019-04-21T18:42:18.179Z,100357.66
2019-04-21T18:47:31.780Z,100361.80
2019-04-21T18:52:45.238Z,100357.89
2019-04-21T18:57:42.367Z,100362.63
2019-04-21T19:02:46.537Z,100369.20
2019-04-21T19:08:10.284Z,100373.20
2019-04-21T19:23:43.160Z,100372.45
2019-04-21T19:28:47.568Z,100369.41
2019-04-21T19:33:36.162Z,100369.98
2019-04-21T19:38:45.346Z,100372.00
2019-04-21T19:43:59.613Z,100370.47
2019-04-21T19:49:13.450Z,100373.41
2019-04-21T19:54:03.774Z,100362.41
2019-04-21T19:59:03.353Z,100366.81
2019-04-21T20:04:08.612Z,100365.59
2019-04-21T20:09:32.494Z,100367.17
2019-04-21T20:19:27.873Z,100367.08
2019-04-21T20:24:35.960Z,100360.23
2019-04-21T20:29:57.891Z,100360.23
2019-04-21T20:35:09.431Z,100346.30
2019-04-21T20:40:00.640Z,100347.05
2019-04-21T20:45:28.854Z,100345.80
2019-04-21T20:50:25.198Z,100346.34
2019-04-21T20:55:22.383Z,100341.73
2019-04-21T21:00:54.740Z,100344.98
2019-04-21T21:05:42.478Z,100343.61
2019-04-21T21:10:53.254Z,100344.25
2019-04-21T21:16:10.540Z,100338.87
2019-04-21T21:21:06.659Z,100334.11
2019-04-21T21:26:21.796Z,100331.31
2019-04-21T21:31:26.566Z,100331.96
2019-04-21T21:36:33.960Z,100335.09
2019-04-21T21:41:26.547Z,100332.78
2019-04-21T21:46:43.016Z,100331.61
2019-04-21T21:51:45.063Z,100335.27
2019-04-21T21:56:40.775Z,100330.14
2019-04-21T22:01:50.671Z,100328.69
2019-04-21T22:07:02.538Z,100326.50
2019-04-21T22:12:06.260Z,100325.35
2019-04-21T22:17:24.760Z,100329.14
2019-04-21T22:22:28.588Z,100324.19
2019-04-21T22:27:23.221Z,100315.02
2019-04-21T22:32:30.907Z,100314.28
2019-04-21T22:37:49.952Z,100312.08
2019-04-21T22:42:54.569Z,100309.05
2019-04-21T22:47:49.492Z,100306.11
2019-04-21T22:52:59.459Z,100309.75
2019-04-21T22:58:03.443Z,100310.44
2019-04-21T23:03:13.544Z,100311.45
2019-04-21T23:08:15.273Z,100314.31
2019-04-21T23:13:23.599Z,100302.94
2019-04-21T23:18:42.301Z,100302.99
2019-04-21T23:23:52.455Z,100304.80
2019-04-21T23:29:01.932Z,100300.43
2019-04-21T23:33:48.411Z,100292.84
2019-04-21T23:38:56.745Z,100290.25
2019-04-21T23:44:05.548Z,100292.16
2019-04-21T23:49:21.470Z,100293.52
2019-04-21T23:54:15.657Z,100285.09
2019-04-21T23:59:20.733Z,100277.34
